sensor_id;sensor_type;location;lat;lon;timestamp;temperature;humidity
19385;DHT22;9828;54.122;17.974;2022-11-18T00:02:12;0.50;1.00
19385;DHT22;9828;54.122;17.974;2022-11-18T00:07:33;0.40;1.00
19385;DHT22;9828;54.122;17.974;2022-11-18T00:12:56;0.50;1.00
19385;DHT22;9828;54.122;17.974;2022-11-18T00:18:36;0.40;1.00
19385;DHT22;9828;54.122;17.974;2022-11-18T00:23:58;0.30;99.90
19385;DHT22;9828;54.122;17.974;2022-11-18T00:29:20;0.30;99.90
19385;DHT22;9828;54.122;17.974;2022-11-18T00:34:41;0.30;99.90
19385;DHT22;9828;54.122;17.974;2022-11-18T00:40:03;0.30;99.90
19385;DHT22;9828;54.122;17.974;2022-11-18T00:45:25;0.40;99.90
19385;DHT22;9828;54.122;17.974;2022-11-18T00:50:48;0.40;99.90
19385;DHT22;9828;54.122;17.974;2022-11-18T00:56:10;0.40;8.40
19385;DHT22;9828;54.122;17.974;2022-11-18T01:01:31;0.40;1.00
19385;DHT22;9828;54.122;17.974;2022-11-18T01:06:52;0.50;1.00
19385;DHT22;9828;54.122;17.974;2022-11-18T01:12:14;0.50;1.00
19385;DHT22;9828;54.122;17.974;2022-11-18T01:17:53;0.50;1.00
19385;DHT22;9828;54.122;17.974;2022-11-18T01:23:16;0.50;1.00
19385;DHT22;9828;54.122;17.974;2022-11-18T01:28:38;0.50;99.90
19385;DHT22;9828;54.122;17.974;2022-11-18T01:33:59;0.50;99.90
19385;DHT22;9828;54.122;17.974;2022-11-18T01:39:21;0.40;1.00
19385;DHT22;9828;54.122;17.974;2022-11-18T01:50:30;0.10;1.00
19385;DHT22;9828;54.122;17.974;2022-11-18T01:55:54;0.10;1.00
19385;DHT22;9828;54.122;17.974;2022-11-18T02:01:16;0.00;1.00
19385;DHT22;9828;54.122;17.974;2022-11-18T02:06:37;0.00;72.20
19385;DHT22;9828;54.122;17.974;2022-11-18T02:11:58;-0.10;99.90
19385;DHT22;9828;54.122;17.974;2022-11-18T02:17:37;0.00;1.00
19385;DHT22;9828;54.122;17.974;2022-11-18T02:29:22;0.10;99.90
19385;DHT22;9828;54.122;17.974;2022-11-18T02:45:41;-0.10;1.00
19385;DHT22;9828;54.122;17.974;2022-11-18T02:51:06;-0.30;99.90
19385;DHT22;9828;54.122;17.974;2022-11-18T02:56:29;-0.30;1.00
19385;DHT22;9828;54.122;17.974;2022-11-18T03:01:52;-0.40;99.90
19385;DHT22;9828;54.122;17.974;2022-11-18T03:07:28;-0.40;99.90
19385;DHT22;9828;54.122;17.974;2022-11-18T03:18:47;-0.40;1.00
19385;DHT22;9828;54.122;17.974;2022-11-18T03:24:22;-0.40;37.10
19385;DHT22;9828;54.122;17.974;2022-11-18T03:29:53;-0.40;39.10
19385;DHT22;9828;54.122;17.974;2022-11-18T03:35:28;-0.60;99.90
19385;DHT22;9828;54.122;17.974;2022-11-18T03:40:56;-0.60;1.00
19385;DHT22;9828;54.122;17.974;2022-11-18T03:46:22;-0.60;1.00
19385;DHT22;9828;54.122;17.974;2022-11-18T03:51:50;-0.70;99.90
19385;DHT22;9828;54.122;17.974;2022-11-18T03:57:29;-0.60;99.90
19385;DHT22;9828;54.122;17.974;2022-11-18T04:02:52;-0.60;1.00
19385;DHT22;9828;54.122;17.974;2022-11-18T04:08:23;-0.50;1.00
19385;DHT22;9828;54.122;17.974;2022-11-18T04:13:47;-0.50;1.00
19385;DHT22;9828;54.122;17.974;2022-11-18T04:19:08;-0.30;1.00
19385;DHT22;9828;54.122;17.974;2022-11-18T04:24:30;-0.30;1.00
19385;DHT22;9828;54.122;17.974;2022-11-18T04:29:52;-0.20;1.00
19385;DHT22;9828;54.122;17.974;2022-11-18T04:35:13;-0.20;1.00
19385;DHT22;9828;54.122;17.974;2022-11-18T04:40:35;-0.20;21.10
19385;DHT22;9828;54.122;17.974;2022-11-18T04:45:56;-0.10;20.40
19385;DHT22;9828;54.122;17.974;2022-11-18T04:51:17;0.00;88.90
19385;DHT22;9828;54.122;17.974;2022-11-18T04:56:39;0.10;1.00
19385;DHT22;9828;54.122;17.974;2022-11-18T05:02:03;0.00;1.00
19385;DHT22;9828;54.122;17.974;2022-11-18T05:07:25;0.00;1.00
19385;DHT22;9828;54.122;17.974;2022-11-18T05:12:46;0.00;70.90
19385;DHT22;9828;54.122;17.974;2022-11-18T05:18:10;0.10;24.50
19385;DHT22;9828;54.122;17.974;2022-11-18T05:23:31;0.10;38.80
19385;DHT22;9828;54.122;17.974;2022-11-18T05:28:52;0.20;1.00
19385;DHT22;9828;54.122;17.974;2022-11-18T05:34:14;0.20;1.00
19385;DHT22;9828;54.122;17.974;2022-11-18T05:39:35;0.20;1.00
19385;DHT22;9828;54.122;17.974;2022-11-18T05:44:56;0.30;1.00
19385;DHT22;9828;54.122;17.974;2022-11-18T05:50:18;0.20;1.00
19385;DHT22;9828;54.122;17.974;2022-11-18T05:55:56;0.30;1.00
19385;DHT22;9828;54.122;17.974;2022-11-18T06:01:23;0.30;1.00
19385;DHT22;9828;54.122;17.974;2022-11-18T06:06:47;0.40;99.90
19385;DHT22;9828;54.122;17.974;2022-11-18T06:12:14;0.40;1.00
19385;DHT22;9828;54.122;17.974;2022-11-18T06:17:50;0.40;99.90
19385;DHT22;9828;54.122;17.974;2022-11-18T06:23:14;0.40;1.00
19385;DHT22;9828;54.122;17.974;2022-11-18T06:28:35;0.50;1.00
19385;DHT22;9828;54.122;17.974;2022-11-18T06:33:56;0.50;99.90
19385;DHT22;9828;54.122;17.974;2022-11-18T06:39:36;0.50;1.00
19385;DHT22;9828;54.122;17.974;2022-11-18T06:44:57;0.40;1.00
19385;DHT22;9828;54.122;17.974;2022-11-18T06:50:18;0.40;1.00
19385;DHT22;9828;54.122;17.974;2022-11-18T06:55:40;0.40;99.90
19385;DHT22;9828;54.122;17.974;2022-11-18T07:01:16;0.50;99.90
19385;DHT22;9828;54.122;17.974;2022-11-18T07:06:38;0.50;1.00
19385;DHT22;9828;54.122;17.974;2022-11-18T07:11:59;0.60;99.90
19385;DHT22;9828;54.122;17.974;2022-11-18T07:17:20;0.60;99.90
19385;DHT22;9828;54.122;17.974;2022-11-18T07:22:41;0.70;1.00
19385;DHT22;9828;54.122;17.974;2022-11-18T07:28:02;0.80;1.00
19385;DHT22;9828;54.122;17.974;2022-11-18T07:33:24;0.80;1.00
19385;DHT22;9828;54.122;17.974;2022-11-18T07:38:46;0.90;99.90
19385;DHT22;9828;54.122;17.974;2022-11-18T07:44:10;0.90;99.90
19385;DHT22;9828;54.122;17.974;2022-11-18T07:49:31;1.00;99.90
19385;DHT22;9828;54.122;17.974;2022-11-18T07:54:53;1.10;99.90
19385;DHT22;9828;54.122;17.974;2022-11-18T08:00:14;1.00;99.90
19385;DHT22;9828;54.122;17.974;2022-11-18T08:05:36;1.00;44.10
19385;DHT22;9828;54.122;17.974;2022-11-18T08:10:59;1.00;1.00
19385;DHT22;9828;54.122;17.974;2022-11-18T08:16:23;1.00;1.00
19385;DHT22;9828;54.122;17.974;2022-11-18T08:21:44;1.00;1.00
19385;DHT22;9828;54.122;17.974;2022-11-18T08:27:05;1.00;1.00
19385;DHT22;9828;54.122;17.974;2022-11-18T08:32:29;1.10;1.00
19385;DHT22;9828;54.122;17.974;2022-11-18T08:37:54;1.20;1.00
19385;DHT22;9828;54.122;17.974;2022-11-18T08:43:18;1.30;1.00
19385;DHT22;9828;54.122;17.974;2022-11-18T08:48:39;1.40;1.00
19385;DHT22;9828;54.122;17.974;2022-11-18T08:54:00;1.30;1.00
19385;DHT22;9828;54.122;17.974;2022-11-18T08:59:22;1.40;1.00
19385;DHT22;9828;54.122;17.974;2022-11-18T09:04:45;1.30;99.90
19385;DHT22;9828;54.122;17.974;2022-11-18T09:10:06;1.10;99.90
19385;DHT22;9828;54.122;17.974;2022-11-18T09:15:27;1.00;99.90
19385;DHT22;9828;54.122;17.974;2022-11-18T09:20:57;1.00;99.90
19385;DHT22;9828;54.122;17.974;2022-11-18T09:26:21;1.00;99.90
19385;DHT22;9828;54.122;17.974;2022-11-18T09:31:43;1.00;99.90
19385;DHT22;9828;54.122;17.974;2022-11-18T09:37:05;1.30;1.00
19385;DHT22;9828;54.122;17.974;2022-11-18T09:48:17;1.20;1.00
19385;DHT22;9828;54.122;17.974;2022-11-18T09:53:43;1.20;1.00
19385;DHT22;9828;54.122;17.974;2022-11-18T09:59:05;1.20;99.90
19385;DHT22;9828;54.122;17.974;2022-11-18T10:04:27;1.20;1.00
19385;DHT22;9828;54.122;17.974;2022-11-18T10:09:50;1.30;99.90
19385;DHT22;9828;54.122;17.974;2022-11-18T10:15:42;1.30;99.90
19385;DHT22;9828;54.122;17.974;2022-11-18T10:21:27;1.60;99.90
19385;DHT22;9828;54.122;17.974;2022-11-18T10:26:59;2.00;1.00
19385;DHT22;9828;54.122;17.974;2022-11-18T10:32:21;2.30;99.90
19385;DHT22;9828;54.122;17.974;2022-11-18T10:37:42;2.50;99.90
19385;DHT22;9828;54.122;17.974;2022-11-18T10:54:30;2.40;2.10
19385;DHT22;9828;54.122;17.974;2022-11-18T10:59:55;3.20;97.10
19385;DHT22;9828;54.122;17.974;2022-11-18T11:05:21;5.80;1.00
19385;DHT22;9828;54.122;17.974;2022-11-18T11:16:26;9.40;1.00
19385;DHT22;9828;54.122;17.974;2022-11-18T11:21:49;9.10;1.00
19385;DHT22;9828;54.122;17.974;2022-11-18T11:27:22;7.90;1.00
19385;DHT22;9828;54.122;17.974;2022-11-18T11:33:18;6.40;1.00
19385;DHT22;9828;54.122;17.974;2022-11-18T11:55:58;3.50;1.00
19385;DHT22;9828;54.122;17.974;2022-11-18T12:07:06;3.50;1.00
19385;DHT22;9828;54.122;17.974;2022-11-18T12:13:02;3.40;1.00
19385;DHT22;9828;54.122;17.974;2022-11-18T12:18:42;3.10;1.00
19385;DHT22;9828;54.122;17.974;2022-11-18T12:24:30;3.10;1.00
19385;DHT22;9828;54.122;17.974;2022-11-18T12:29:54;2.90;1.00
19385;DHT22;9828;54.122;17.974;2022-11-18T12:35:26;2.70;1.00
19385;DHT22;9828;54.122;17.974;2022-11-18T12:40:48;2.60;1.00
19385;DHT22;9828;54.122;17.974;2022-11-18T12:52:02;2.90;1.00
19385;DHT22;9828;54.122;17.974;2022-11-18T12:57:33;2.80;1.00
19385;DHT22;9828;54.122;17.974;2022-11-18T13:02:59;2.70;1.00
19385;DHT22;9828;54.122;17.974;2022-11-18T13:08:21;2.70;1.00
19385;DHT22;9828;54.122;17.974;2022-11-18T13:13:44;2.60;1.00
19385;DHT22;9828;54.122;17.974;2022-11-18T13:19:05;2.60;1.00
19385;DHT22;9828;54.122;17.974;2022-11-18T13:24:27;2.60;1.00
19385;DHT22;9828;54.122;17.974;2022-11-18T13:29:56;2.60;1.00
19385;DHT22;9828;54.122;17.974;2022-11-18T13:35:22;2.50;1.00
19385;DHT22;9828;54.122;17.974;2022-11-18T13:40:45;2.30;1.00
19385;DHT22;9828;54.122;17.974;2022-11-18T13:46:27;2.10;1.00
19385;DHT22;9828;54.122;17.974;2022-11-18T13:51:48;2.00;1.00
19385;DHT22;9828;54.122;17.974;2022-11-18T13:57:20;2.20;1.00
19385;DHT22;9828;54.122;17.974;2022-11-18T14:02:42;2.20;1.00
19385;DHT22;9828;54.122;17.974;2022-11-18T14:08:22;2.00;1.00
19385;DHT22;9828;54.122;17.974;2022-11-18T14:13:51;1.90;1.00
19385;DHT22;9828;54.122;17.974;2022-11-18T14:19:44;1.80;1.00
19385;DHT22;9828;54.122;17.974;2022-11-18T14:25:21;1.60;1.00
19385;DHT22;9828;54.122;17.974;2022-11-18T14:36:37;1.30;1.00
19385;DHT22;9828;54.122;17.974;2022-11-18T14:42:03;1.30;1.00
19385;DHT22;9828;54.122;17.974;2022-11-18T14:47:27;1.30;1.00
19385;DHT22;9828;54.122;17.974;2022-11-18T14:52:49;1.10;1.00
19385;DHT22;9828;54.122;17.974;2022-11-18T14:58:12;1.20;1.00
19385;DHT22;9828;54.122;17.974;2022-11-18T15:03:34;1.20;1.00
19385;DHT22;9828;54.122;17.974;2022-11-18T15:08:56;1.20;1.00
19385;DHT22;9828;54.122;17.974;2022-11-18T15:14:17;1.10;1.00
19385;DHT22;9828;54.122;17.974;2022-11-18T15:19:39;1.10;1.00
19385;DHT22;9828;54.122;17.974;2022-11-18T15:25:01;1.10;1.00
19385;DHT22;9828;54.122;17.974;2022-11-18T15:30:24;1.10;1.00
19385;DHT22;9828;54.122;17.974;2022-11-18T15:35:47;1.10;1.00
19385;DHT22;9828;54.122;17.974;2022-11-18T15:41:17;1.00;1.00
19385;DHT22;9828;54.122;17.974;2022-11-18T15:46:38;1.00;1.00
19385;DHT22;9828;54.122;17.974;2022-11-18T15:51:59;0.90;1.00
19385;DHT22;9828;54.122;17.974;2022-11-18T15:57:21;0.70;1.00
19385;DHT22;9828;54.122;17.974;2022-11-18T16:02:43;0.70;1.00
19385;DHT22;9828;54.122;17.974;2022-11-18T16:08:05;0.60;1.00
19385;DHT22;9828;54.122;17.974;2022-11-18T16:13:26;0.50;1.00
19385;DHT22;9828;54.122;17.974;2022-11-18T16:18:48;0.50;1.00
19385;DHT22;9828;54.122;17.974;2022-11-18T16:24:16;0.40;1.00
19385;DHT22;9828;54.122;17.974;2022-11-18T16:29:37;0.50;1.00
19385;DHT22;9828;54.122;17.974;2022-11-18T16:34:58;0.50;1.00
19385;DHT22;9828;54.122;17.974;2022-11-18T16:40:20;0.60;1.00
19385;DHT22;9828;54.122;17.974;2022-11-18T16:45:52;0.70;1.00
19385;DHT22;9828;54.122;17.974;2022-11-18T16:51:19;0.70;1.00
19385;DHT22;9828;54.122;17.974;2022-11-18T16:56:40;0.60;1.00
19385;DHT22;9828;54.122;17.974;2022-11-18T17:02:02;0.50;1.00
19385;DHT22;9828;54.122;17.974;2022-11-18T17:07:23;0.40;1.00
19385;DHT22;9828;54.122;17.974;2022-11-18T17:12:46;0.30;1.00
19385;DHT22;9828;54.122;17.974;2022-11-18T17:18:07;0.30;1.00
19385;DHT22;9828;54.122;17.974;2022-11-18T17:23:32;0.30;1.00
19385;DHT22;9828;54.122;17.974;2022-11-18T17:28:56;0.30;1.00
19385;DHT22;9828;54.122;17.974;2022-11-18T17:34:17;0.40;2.70
19385;DHT22;9828;54.122;17.974;2022-11-18T17:39:39;0.40;1.00
19385;DHT22;9828;54.122;17.974;2022-11-18T17:45:01;0.30;1.00
19385;DHT22;9828;54.122;17.974;2022-11-18T17:50:22;0.30;1.00
19385;DHT22;9828;54.122;17.974;2022-11-18T17:55:44;0.20;9.80
19385;DHT22;9828;54.122;17.974;2022-11-18T18:01:16;0.20;99.90
19385;DHT22;9828;54.122;17.974;2022-11-18T18:06:37;0.30;99.90
19385;DHT22;9828;54.122;17.974;2022-11-18T18:11:59;0.30;99.90
19385;DHT22;9828;54.122;17.974;2022-11-18T18:17:40;0.30;1.00
19385;DHT22;9828;54.122;17.974;2022-11-18T18:23:01;0.30;99.90
19385;DHT22;9828;54.122;17.974;2022-11-18T18:28:23;0.30;99.90
19385;DHT22;9828;54.122;17.974;2022-11-18T18:33:44;0.20;99.90
19385;DHT22;9828;54.122;17.974;2022-11-18T18:39:06;0.10;1.00
19385;DHT22;9828;54.122;17.974;2022-11-18T18:44:27;0.00;1.00
19385;DHT22;9828;54.122;17.974;2022-11-18T18:50:08;-0.10;1.00
19385;DHT22;9828;54.122;17.974;2022-11-18T18:55:29;0.00;1.00
19385;DHT22;9828;54.122;17.974;2022-11-18T19:00:52;0.00;1.00
19385;DHT22;9828;54.122;17.974;2022-11-18T19:06:25;-0.10;1.00
19385;DHT22;9828;54.122;17.974;2022-11-18T19:12:08;-0.20;1.00
19385;DHT22;9828;54.122;17.974;2022-11-18T19:17:48;-0.20;91.40
19385;DHT22;9828;54.122;17.974;2022-11-18T19:23:11;-0.30;1.00
19385;DHT22;9828;54.122;17.974;2022-11-18T19:28:33;-0.40;1.00
19385;DHT22;9828;54.122;17.974;2022-11-18T19:33:54;-0.50;96.60
19385;DHT22;9828;54.122;17.974;2022-11-18T19:39:16;-0.60;1.00
19385;DHT22;9828;54.122;17.974;2022-11-18T19:44:38;-0.60;1.00
19385;DHT22;9828;54.122;17.974;2022-11-18T19:50:00;-0.70;99.90
19385;DHT22;9828;54.122;17.974;2022-11-18T19:55:21;-0.70;1.00
19385;DHT22;9828;54.122;17.974;2022-11-18T20:00:43;-0.60;1.00
19385;DHT22;9828;54.122;17.974;2022-11-18T20:06:05;-0.60;99.90
19385;DHT22;9828;54.122;17.974;2022-11-18T20:11:26;-0.60;99.90
19385;DHT22;9828;54.122;17.974;2022-11-18T20:16:48;-0.70;1.00
19385;DHT22;9828;54.122;17.974;2022-11-18T20:22:11;-0.60;1.00
19385;DHT22;9828;54.122;17.974;2022-11-18T20:27:32;-0.60;99.90
19385;DHT22;9828;54.122;17.974;2022-11-18T20:32:53;-0.60;34.70
19385;DHT22;9828;54.122;17.974;2022-11-18T20:38:14;-0.60;16.90
19385;DHT22;9828;54.122;17.974;2022-11-18T20:43:38;-0.60;99.90
19385;DHT22;9828;54.122;17.974;2022-11-18T20:49:01;-0.60;1.00
19385;DHT22;9828;54.122;17.974;2022-11-18T20:54:22;-0.70;1.00
19385;DHT22;9828;54.122;17.974;2022-11-18T20:59:43;-0.60;1.00
19385;DHT22;9828;54.122;17.974;2022-11-18T21:05:04;-0.60;10.20
19385;DHT22;9828;54.122;17.974;2022-11-18T21:10:25;-0.50;99.90
19385;DHT22;9828;54.122;17.974;2022-11-18T21:15:47;-0.50;99.90
19385;DHT22;9828;54.122;17.974;2022-11-18T21:21:08;-0.60;1.00
19385;DHT22;9828;54.122;17.974;2022-11-18T21:26:50;-0.60;1.00
19385;DHT22;9828;54.122;17.974;2022-11-18T21:32:11;-0.70;22.30
19385;DHT22;9828;54.122;17.974;2022-11-18T21:37:32;-0.80;30.40
19385;DHT22;9828;54.122;17.974;2022-11-18T21:42:54;-0.80;83.90
19385;DHT22;9828;54.122;17.974;2022-11-18T21:48:15;-0.80;1.00
19385;DHT22;9828;54.122;17.974;2022-11-18T21:53:36;-0.70;1.00
19385;DHT22;9828;54.122;17.974;2022-11-18T21:58:59;-0.80;99.90
19385;DHT22;9828;54.122;17.974;2022-11-18T22:04:21;-0.90;79.70
19385;DHT22;9828;54.122;17.974;2022-11-18T22:10:01;-1.00;99.90
19385;DHT22;9828;54.122;17.974;2022-11-18T22:15:22;-1.10;1.00
19385;DHT22;9828;54.122;17.974;2022-11-18T22:20:44;-1.10;99.90
19385;DHT22;9828;54.122;17.974;2022-11-18T22:26:17;-1.10;1.00
19385;DHT22;9828;54.122;17.974;2022-11-18T22:31:38;-1.00;99.90
19385;DHT22;9828;54.122;17.974;2022-11-18T22:36:59;-1.00;99.90
19385;DHT22;9828;54.122;17.974;2022-11-18T22:42:21;-1.00;99.90
19385;DHT22;9828;54.122;17.974;2022-11-18T22:48:01;-1.00;99.90
19385;DHT22;9828;54.122;17.974;2022-11-18T22:53:22;-1.00;99.90
19385;DHT22;9828;54.122;17.974;2022-11-18T22:58:43;-0.90;99.90
19385;DHT22;9828;54.122;17.974;2022-11-18T23:04:04;-0.90;1.00
19385;DHT22;9828;54.122;17.974;2022-11-18T23:09:25;-0.90;1.00
19385;DHT22;9828;54.122;17.974;2022-11-18T23:14:46;-0.90;1.00
19385;DHT22;9828;54.122;17.974;2022-11-18T23:20:08;-0.90;1.00
19385;DHT22;9828;54.122;17.974;2022-11-18T23:25:30;-0.90;1.00
19385;DHT22;9828;54.122;17.974;2022-11-18T23:30:51;-0.90;15.00
19385;DHT22;9828;54.122;17.974;2022-11-18T23:36:15;-0.90;93.20
19385;DHT22;9828;54.122;17.974;2022-11-18T23:41:36;-1.00;99.90
19385;DHT22;9828;54.122;17.974;2022-11-18T23:46:57;-1.10;99.90
19385;DHT22;9828;54.122;17.974;2022-11-18T23:52:19;-1.30;99.90
19385;DHT22;9828;54.122;17.974;2022-11-18T23:57:40;-1.50;24.20
